Terminal Aerodrome Forecast
Issued by NWS Northern Indiana

Home | Current Version | Previous Version | Graphics & Text | Print | Product List | Glossary On
Versions: 1 2 3 4 5 6 7 8 9 10 11 12 13
000
FTUS43 KIWX 191000 AAA
TAFFWA
TAF AMD
KFWA 191034Z 1911/2006 30011KT P6SM FEW040
     FM191200 30012G17KT P6SM OVC030
     FM191900 31012G20KT P6SM SCT035
     FM200000 32010KT P6SM FEW035=

USA.gov is the U.S. government's official web portal to all federal, state and local government web resources and services.